Track малышев александр

Time Latitude Longitude Accuracy (66% radius in meters) Altitude (meters) Speed (km/hour) Bearing (degrees) Battery (%) GPS flag
09:24:04 59.743468 30.397513 20 24.1 0 69.75 88 1 delete
09:23:53 59.743468 30.397513 20 24.1 0 173.44000244141 88 1 delete
09:23:41 59.743468 30.397513 20 24.1 0 173.44000244141 88 1 delete
09:23:30 59.743468 30.397513 20 24.1 0 173.44000244141 88 1 delete
09:23:20 59.743468 30.397513 20 24.1 0 173.44000244141 88 1 delete
09:23:17 59.743473 30.397508 20 24.1 0 172.82000732422 88 1 delete
09:23:08 59.743563 30.397450 20 23.4 0 36.419998168945 88 1 delete
09:22:57 59.743563 30.397450 20 23.2 0 26.729999542236 88 1 delete
09:22:46 59.743475 30.397388 20 21.4 0 197.96000671387 88 1 delete
09:22:35 59.743475 30.397388 20 21.4 0 197.96000671387 88 1 delete
09:22:23 59.743475 30.397388 20 21.4 0 153.46000671387 88 1 delete
09:22:13 59.743475 30.397388 20 21.4 0 153.46000671387 88 1 delete
09:22:02 59.743475 30.397388 20 21.4 0 14.449999809265 88 1 delete
09:21:51 59.743475 30.397388 20 21.4 0 14.449999809265 88 1 delete
09:21:40 59.743475 30.397388 20 21.4 0 14.449999809265 88 1 delete
09:21:26 59.743475 30.397388 20 21.4 0 14.449999809265 88 1 delete
09:21:16 59.743475 30.397388 20 21.4 0 231.55000305176 88 1 delete
09:21:04 59.743475 30.397388 20 21.4 0 231.55000305176 88 1 delete
09:20:54 59.743475 30.397388 20 21.4 0 231.55000305176 88 1 delete
09:20:44 59.743475 30.397388 20 21.4 0 231.55000305176 88 1 delete
09:20:34 59.743475 30.397388 20 21.4 0 231.55000305176 88 1 delete
09:20:23 59.743475 30.397388 20 21.4 0 162.30999755859 88 1 delete
09:20:15 59.743473 30.397388 20 21.4 0.10912111401558 162.30999755859 88 1 delete
09:20:13 59.743562 30.397350 20 20.5 0 162.30999755859 88 1 delete
09:20:01 59.743562 30.397350 20 20.5 0 162.30999755859 88 1 delete
09:19:49 59.743562 30.397350 20 20.5 0 162.30999755859 88 1 delete
09:19:39 59.743562 30.397350 20 20.5 0 36.150001525879 88 1 delete
09:19:27 59.743562 30.397350 20 20.5 0 152.5 88 1 delete
09:19:17 59.743562 30.397350 20 20.5 0 152.5 88 1 delete
09:19:07 59.743562 30.397350 20 20.5 0 152.5 88 1 delete
09:18:56 59.743603 30.397390 20 20.8 1.1694488525391 220.88000488281 88 1 delete
09:18:54 59.743618 30.397417 20 20.8 1.1946703195572 209.41000366211 88 1 delete
09:18:44 59.743702 30.397460 20 20.5 0 191.11999511719 88 1 delete
09:18:34 59.743712 30.397467 20 20.4 1.3820291757584 191.11999511719 88 1 delete
09:18:32 59.743750 30.397480 20 19.9 2.6770703792572 188.08999633789 88 1 delete
09:18:30 59.743803 30.397490 20 19.5 2.7408957481384 186.44999694824 88 1 delete
09:18:26 59.743918 30.397508 20 19.7 3.2612800598145 185.41999816895 88 1 delete
09:18:22 59.744035 30.397530 20 20.9 3.2978253364563 184.44000244141 88 1 delete
09:18:20 59.744092 30.397535 20 20.7 3.1794390678406 181.32000732422 88 1 delete
09:18:18 59.744143 30.397537 20 20.4 2.6935412883759 181.63000488281 88 1 delete
09:18:10 59.744360 30.397543 20 19.3 3.147011756897 172.05000305176 88 1 delete
09:18:05 59.744477 30.397525 20 18.9 2.6889088153839 152.08999633789 88 1 delete
09:17:58 59.744612 30.397222 20 18.4 2.8139863014221 137.58999633789 88 1 delete
09:17:54 59.744692 30.397098 20 18.1 1.9163107872009 145.11000061035 88 1 delete
09:17:52 59.744715 30.397053 20 17.8 1.8293228149414 128.2799987793 88 1 delete
09:17:49 59.744758 30.396962 20 17.6 2.51802110672 132.67999267578 88 1 delete
09:17:45 59.744828 30.396815 20 17 2.6019208431244 132.5 88 1 delete
09:17:40 59.744938 30.396788 20 14.8 2.2560274600983 213.16999816895 88 1 delete
09:17:35 59.745013 30.396903 20 14.1 1.1684194803238 208.75999450684 88 1 delete
09:17:28 59.745102 30.396983 20 13.1 0 197.19000244141 88 1 delete